Time;durP1;ratioP1;P1;durP2;ratioP2;P2;SDS_P1;SDS_P2;PMS_P1;PMS_P2;Temp;Humidity;BMP_temperature;BMP_pressure;BME280_temperature;BME280_humidity;BME280_pressure;Samples;Min_cycle;Max_cycle;Signal;HPM_P1;HPM_P2
2022/05/26 00:01:28;;;;;;;119.28;108.03;;;14.10;99.90;;;;;;4993825;28;20051;-72
2022/05/26 00:03:56;;;;;;;120.05;108.95;;;14.00;99.90;;;;;;4993817;28;20054;-72
2022/05/26 00:06:24;;;;;;;122.18;110.90;;;14.00;99.90;;;;;;4993791;28;20142;-72
2022/05/26 00:08:52;;;;;;;122.13;110.72;;;14.00;99.90;;;;;;5011457;28;20043;-72
2022/05/26 00:11:22;;;;;;;122.13;110.63;;;14.10;99.90;;;;;;5013392;28;20055;-72
2022/05/26 00:13:49;;;;;;;121.57;110.03;;;14.10;99.90;;;;;;5015016;28;20174;-72
2022/05/26 00:16:18;;;;;;;122.72;111.07;;;14.10;99.90;;;;;;5014174;28;20050;-72
2022/05/26 00:18:45;;;;;;;125.93;113.95;;;14.20;99.90;;;;;;5013494;28;20054;-72
2022/05/26 00:21:14;;;;;;;125.80;114.07;;;14.20;99.90;;;;;;5018776;28;20506;-72
2022/05/26 00:23:41;;;;;;;127.43;115.45;;;14.20;99.90;;;;;;4999958;28;20531;-72
2022/05/26 00:26:08;;;;;;;127.85;115.35;;;14.20;99.90;;;;;;5027395;28;20050;-72
2022/05/26 00:28:35;;;;;;;130.32;117.28;;;14.20;99.90;;;;;;5011553;28;20054;-72
2022/05/26 00:31:02;;;;;;;127.90;115.75;;;14.20;99.90;;;;;;5005220;28;20049;-72
2022/05/26 00:33:29;;;;;;;130.32;117.72;;;14.20;99.90;;;;;;4998996;28;20054;-72
2022/05/26 00:35:56;;;;;;;132.32;119.53;;;14.30;99.90;;;;;;5011380;28;20050;-72
2022/05/26 00:38:24;;;;;;;131.18;118.72;;;14.30;99.90;;;;;;5013379;28;20551;-72
2022/05/26 00:40:51;;;;;;;132.57;119.63;;;14.30;99.90;;;;;;5014078;28;20542;-72
2022/05/26 00:43:18;;;;;;;132.98;120.35;;;14.30;99.90;;;;;;4977606;28;20500;-72
2022/05/26 00:45:55;;;;;;;133.52;120.32;;;14.30;99.90;;;;;;4994015;28;20078;-72
2022/05/26 00:48:27;;;;;;;133.20;120.20;;;14.30;99.90;;;;;;5012222;28;20061;-72
2022/05/26 00:50:58;;;;;;;135.68;122.45;;;14.30;99.90;;;;;;5012200;28;20046;-72
2022/05/26 00:53:31;;;;;;;133.68;120.60;;;14.40;99.90;;;;;;5011370;28;20046;-72
2022/05/26 00:56:07;;;;;;;131.80;119.05;;;14.40;99.90;;;;;;5011770;28;20057;-72
2022/05/26 00:58:38;;;;;;;132.02;118.97;;;14.40;99.90;;;;;;5013138;28;20057;-72
2022/05/26 01:01:05;;;;;;;134.68;121.20;;;14.40;99.90;;;;;;5006969;28;20082;-72
2022/05/26 01:03:37;;;;;;;134.07;120.70;;;14.40;99.90;;;;;;5010559;28;20529;-72
2022/05/26 01:06:10;;;;;;;135.80;122.15;;;14.40;99.90;;;;;;4995964;28;20141;-72
2022/05/26 01:08:44;;;;;;;134.35;121.10;;;14.50;99.90;;;;;;5000558;28;20051;-72
2022/05/26 01:11:12;;;;;;;137.55;123.35;;;14.50;99.90;;;;;;5012937;28;20073;-72
2022/05/26 01:13:43;;;;;;;135.38;121.85;;;14.50;99.90;;;;;;5009513;28;20425;-72
2022/05/26 01:16:20;;;;;;;136.60;121.80;;;14.50;99.90;;;;;;5009774;28;20154;-72
2022/05/26 01:18:57;;;;;;;136.32;122.40;;;14.50;99.90;;;;;;5027677;28;20117;-72
2022/05/26 01:21:29;;;;;;;134.80;120.97;;;14.50;99.90;;;;;;5011465;28;20058;-72
2022/05/26 01:24:33;;;;;;;136.90;122.80;;;14.50;99.90;;;;;;5010172;28;20527;-72
2022/05/26 01:27:19;;;;;;;137.05;123.18;;;14.60;99.90;;;;;;4998573;28;20141;-72
2022/05/26 01:30:31;;;;;;;135.75;121.55;;;14.60;99.90;;;;;;5012498;28;20556;-72
2022/05/26 01:33:20;;;;;;;133.23;119.65;;;14.60;99.90;;;;;;5011788;28;20058;-72
2022/05/26 01:35:59;;;;;;;132.30;118.82;;;14.60;99.90;;;;;;5012128;28;20060;-72
2022/05/26 01:38:34;;;;;;;134.70;120.40;;;14.60;99.90;;;;;;5010639;28;20043;-72
2022/05/26 01:41:12;;;;;;;133.83;119.77;;;14.60;99.90;;;;;;5011567;28;20052;-72
2022/05/26 01:43:47;;;;;;;134.68;120.47;;;14.60;99.90;;;;;;5011440;28;20485;-72
2022/05/26 01:46:21;;;;;;;134.25;119.65;;;14.60;99.90;;;;;;5011764;28;20055;-72
2022/05/26 01:48:56;;;;;;;134.57;120.25;;;14.60;99.90;;;;;;5012983;28;20050;-72
2022/05/26 01:51:28;;;;;;;133.27;118.93;;;14.60;99.90;;;;;;5011731;28;20058;-72
2022/05/26 01:54:06;;;;;;;133.07;119.07;;;14.70;99.90;;;;;;5005721;28;20047;-72
2022/05/26 01:56:44;;;;;;;132.05;117.78;;;14.70;99.90;;;;;;5009787;28;21856;-72
2022/05/26 01:59:14;;;;;;;136.07;120.63;;;14.60;99.90;;;;;;4993413;28;20097;-72
2022/05/26 02:01:48;;;;;;;135.30;119.28;;;14.70;99.90;;;;;;4994800;28;20134;-72
2022/05/26 02:04:22;;;;;;;134.13;118.97;;;14.70;99.90;;;;;;4995688;28;20789;-72
2022/05/26 02:06:55;;;;;;;133.07;118.13;;;14.70;99.90;;;;;;5008300;28;20051;-72
2022/05/26 02:09:27;;;;;;;134.07;119.47;;;14.70;99.90;;;;;;4991676;28;20054;-72
2022/05/26 02:11:58;;;;;;;133.18;118.55;;;14.70;99.90;;;;;;5024416;28;20189;-72
2022/05/26 02:14:30;;;;;;;133.75;119.32;;;14.70;99.90;;;;;;5014953;28;20050;-72
2022/05/26 02:17:03;;;;;;;136.63;118.60;;;14.70;99.90;;;;;;5013494;28;20056;-72
2022/05/26 02:19:35;;;;;;;131.30;116.75;;;14.70;99.90;;;;;;5015118;28;20506;-72
2022/05/26 02:22:09;;;;;;;132.43;117.30;;;14.80;99.90;;;;;;5013180;28;20050;-72
2022/05/26 02:24:40;;;;;;;138.57;118.07;;;14.80;99.90;;;;;;5012242;28;20051;-72
2022/05/26 02:27:08;;;;;;;138.27;120.20;;;14.80;99.90;;;;;;5013739;28;20062;-72
2022/05/26 02:29:53;;;;;;;141.73;117.22;;;14.80;99.90;;;;;;5014447;28;20494;-71
2022/05/26 02:32:36;;;;;;;139.25;116.10;;;14.80;99.90;;;;;;5009419;28;20134;-72
2022/05/26 02:35:09;;;;;;;132.68;115.22;;;14.80;99.90;;;;;;5007024;28;20047;-72
2022/05/26 02:37:37;;;;;;;142.32;117.05;;;14.80;99.90;;;;;;5014388;28;20074;-72
2022/05/26 02:40:06;;;;;;;141.32;117.70;;;14.80;99.90;;;;;;5014589;28;20050;-72
2022/05/26 02:42:34;;;;;;;142.95;117.65;;;14.80;99.90;;;;;;5013483;28;20053;-72
2022/05/26 02:45:01;;;;;;;132.40;117.80;;;14.80;99.90;;;;;;4996212;28;20050;-72
2022/05/26 02:47:45;;;;;;;136.35;116.75;;;14.80;99.90;;;;;;5014308;28;20531;-72
2022/05/26 02:50:24;;;;;;;130.15;115.88;;;14.80;99.90;;;;;;4995801;28;20493;-72
2022/05/26 02:53:02;;;;;;;140.80;117.78;;;14.80;99.90;;;;;;4994912;28;20061;-72
2022/05/26 02:55:41;;;;;;;129.88;115.28;;;14.80;99.90;;;;;;5012704;28;20050;-72
2022/05/26 02:58:13;;;;;;;132.23;117.75;;;14.80;99.90;;;;;;5012325;28;20461;-72
2022/05/26 03:00:46;;;;;;;141.35;116.75;;;14.80;99.90;;;;;;5012276;28;20050;-72
2022/05/26 03:03:19;;;;;;;130.73;115.72;;;14.80;99.90;;;;;;5013711;28;20129;-72
2022/05/26 03:05:53;;;;;;;129.23;114.93;;;14.80;99.90;;;;;;5013311;28;20072;-72
2022/05/26 03:08:23;;;;;;;133.38;114.75;;;14.80;99.90;;;;;;5013879;28;20081;-72
2022/05/26 03:10:52;;;;;;;141.38;116.50;;;14.80;99.90;;;;;;5013882;28;20046;-72
2022/05/26 03:13:19;;;;;;;130.02;115.80;;;14.80;99.90;;;;;;5011179;28;20082;-72
2022/05/26 03:15:46;;;;;;;133.63;114.70;;;14.80;99.90;;;;;;5012445;28;20047;-72
2022/05/26 03:18:13;;;;;;;132.00;115.47;;;14.80;99.90;;;;;;5014837;28;20064;-72
2022/05/26 03:20:40;;;;;;;132.85;116.95;;;14.80;99.90;;;;;;5012910;28;20109;-72
2022/05/26 03:23:08;;;;;;;134.90;114.57;;;14.80;99.90;;;;;;5015060;28;20130;-72
2022/05/26 03:25:35;;;;;;;130.30;115.38;;;14.80;99.90;;;;;;5011218;28;20050;-72
2022/05/26 03:28:02;;;;;;;136.13;115.90;;;14.80;99.90;;;;;;5005095;28;20085;-72
2022/05/26 03:30:29;;;;;;;138.27;116.13;;;14.80;99.90;;;;;;5008329;28;20052;-72
2022/05/26 03:32:56;;;;;;;127.07;113.40;;;14.80;99.90;;;;;;5014392;28;20062;-72
2022/05/26 03:40:55;;;;;;;130.20;114.07;;;14.80;99.90;;;;;;5014660;28;20058;-72
2022/05/26 03:43:27;;;;;;;134.88;113.82;;;14.70;99.90;;;;;;5016971;28;20080;-72
2022/05/26 03:45:54;;;;;;;131.90;114.30;;;14.70;99.90;;;;;;5014400;28;20054;-72
2022/05/26 03:48:21;;;;;;;136.23;114.57;;;14.80;99.90;;;;;;5014345;28;20125;-72
2022/05/26 03:50:48;;;;;;;126.93;113.10;;;14.70;99.90;;;;;;5013119;28;20102;-72
2022/05/26 03:53:16;;;;;;;128.05;112.50;;;14.80;99.90;;;;;;5011778;28;20057;-72
2022/05/26 03:55:43;;;;;;;129.88;112.88;;;14.70;99.90;;;;;;5012117;28;20047;-72
2022/05/26 03:58:10;;;;;;;127.28;113.43;;;14.70;99.90;;;;;;5012820;28;20453;-72
2022/05/26 04:00:38;;;;;;;130.05;114.15;;;14.70;99.90;;;;;;5013513;28;20053;-72
2022/05/26 04:03:05;;;;;;;125.28;111.70;;;14.70;99.90;;;;;;5014325;28;20136;-72
2022/05/26 04:05:32;;;;;;;126.95;113.05;;;14.70;99.90;;;;;;5012301;28;20050;-72
2022/05/26 04:07:59;;;;;;;125.40;112.25;;;14.70;99.90;;;;;;5012592;28;20052;-72
2022/05/26 04:10:28;;;;;;;126.45;113.38;;;14.70;99.90;;;;;;4995750;28;20129;-72
2022/05/26 04:12:56;;;;;;;125.65;112.32;;;14.70;99.90;;;;;;5009777;28;20045;-72
2022/05/26 04:15:24;;;;;;;126.97;113.15;;;14.60;99.90;;;;;;5011626;28;20062;-72
2022/05/26 04:17:50;;;;;;;128.57;114.53;;;14.60;99.90;;;;;;5011349;28;20069;-72
2022/05/26 04:20:21;;;;;;;127.50;113.70;;;14.60;99.90;;;;;;5011125;28;20474;-72
2022/05/26 04:22:47;;;;;;;126.22;113.25;;;14.60;99.90;;;;;;5011358;28;20953;-72
2022/05/26 04:25:17;;;;;;;126.78;113.25;;;14.60;99.90;;;;;;5003614;28;20057;-72
2022/05/26 04:27:45;;;;;;;124.13;111.05;;;14.60;99.80;;;;;;4997559;28;20511;-73
2022/05/26 04:30:13;;;;;;;127.05;113.68;;;14.60;99.80;;;;;;5002251;28;20070;-72
2022/05/26 04:32:41;;;;;;;125.60;112.47;;;14.60;99.60;;;;;;5001282;28;20051;-72
2022/05/26 04:35:09;;;;;;;124.82;112.28;;;14.60;99.50;;;;;;4991921;28;20055;-72
2022/05/26 04:37:36;;;;;;;123.63;110.65;;;14.60;99.40;;;;;;4989887;28;20084;-72
2022/05/26 04:40:04;;;;;;;122.60;109.80;;;14.60;99.30;;;;;;4994816;28;20432;-72
2022/05/26 04:42:30;;;;;;;121.60;108.93;;;14.50;99.10;;;;;;5003144;28;20070;-72
2022/05/26 04:44:59;;;;;;;123.00;110.70;;;14.50;99.00;;;;;;5010357;28;20062;-72
2022/05/26 04:47:26;;;;;;;120.97;108.78;;;14.50;99.10;;;;;;5020385;28;20057;-72
2022/05/26 04:49:53;;;;;;;121.47;108.97;;;14.50;99.10;;;;;;5025435;28;20053;-72
2022/05/26 04:52:22;;;;;;;121.82;109.55;;;14.50;98.90;;;;;;5008381;28;20051;-72
2022/05/26 04:54:50;;;;;;;121.85;109.97;;;14.40;98.70;;;;;;5008648;28;20141;-72
2022/05/26 04:57:20;;;;;;;123.45;111.28;;;14.40;98.60;;;;;;5019921;28;20097;-72
2022/05/26 04:59:47;;;;;;;123.43;110.97;;;14.40;98.60;;;;;;5008837;28;20173;-72
2022/05/26 05:02:17;;;;;;;120.47;108.47;;;14.40;98.50;;;;;;5009610;28;20042;-72
2022/05/26 05:04:48;;;;;;;122.85;110.50;;;14.40;98.50;;;;;;5010077;28;20057;-72
2022/05/26 05:07:15;;;;;;;119.15;107.40;;;14.40;98.40;;;;;;5011588;28;20934;-72
2022/05/26 05:09:42;;;;;;;123.80;111.60;;;14.40;98.30;;;;;;5009815;28;20054;-72
2022/05/26 05:12:13;;;;;;;119.90;107.97;;;14.40;98.40;;;;;;5012581;28;20078;-72
2022/05/26 05:14:42;;;;;;;120.20;108.70;;;14.40;98.30;;;;;;5009354;28;20053;-72
2022/05/26 05:17:09;;;;;;;120.55;108.95;;;14.40;98.30;;;;;;5010667;28;20050;-72
2022/05/26 05:19:39;;;;;;;120.25;108.70;;;14.40;98.40;;;;;;5012305;28;20049;-72
2022/05/26 05:22:11;;;;;;;118.82;107.13;;;14.40;98.50;;;;;;5013470;28;20528;-72
2022/05/26 05:24:42;;;;;;;119.90;107.97;;;14.30;98.60;;;;;;5011962;28;20056;-72
2022/05/26 05:27:15;;;;;;;123.38;111.43;;;14.30;98.70;;;;;;5010084;28;20043;-72
2022/05/26 05:29:44;;;;;;;119.65;107.57;;;14.30;98.80;;;;;;5010612;28;20054;-72
2022/05/26 05:32:17;;;;;;;117.80;106.50;;;14.40;98.80;;;;;;5012075;28;20043;-72
2022/05/26 05:34:50;;;;;;;118.53;107.13;;;14.40;98.60;;;;;;5012400;28;20137;-73
2022/05/26 05:37:17;;;;;;;121.35;109.53;;;14.50;98.50;;;;;;5006294;28;20075;-72
2022/05/26 05:39:45;;;;;;;117.97;106.75;;;14.50;98.40;;;;;;5009232;28;20133;-72
2022/05/26 05:42:12;;;;;;;119.65;107.70;;;14.50;98.30;;;;;;5011992;28;20054;-72
2022/05/26 05:44:39;;;;;;;118.65;107.25;;;14.60;98.10;;;;;;5010538;28;20081;-73
2022/05/26 05:47:06;;;;;;;121.28;109.53;;;14.60;97.60;;;;;;5011013;28;20126;-73
2022/05/26 05:49:34;;;;;;;118.45;107.13;;;14.60;97.70;;;;;;5013259;28;20042;-79
2022/05/26 05:52:09;;;;;;;117.15;105.90;;;14.70;97.50;;;;;;4995470;28;20530;-74
2022/05/26 05:54:37;;;;;;;117.03;106.00;;;14.70;97.50;;;;;;5010781;28;20046;-77
2022/05/26 05:57:04;;;;;;;122.15;110.32;;;14.80;97.20;;;;;;5011502;28;20566;-74
2022/05/26 05:59:31;;;;;;;118.05;106.60;;;14.80;97.20;;;;;;5000183;28;20508;-76
2022/05/26 06:01:58;;;;;;;117.88;106.70;;;14.80;96.90;;;;;;4993327;28;20075;-75
2022/05/26 06:04:25;;;;;;;118.88;107.68;;;14.80;97.30;;;;;;4992470;28;20080;-74
2022/05/26 06:06:52;;;;;;;118.38;107.15;;;14.80;97.10;;;;;;4993748;28;20109;-74
2022/05/26 06:09:21;;;;;;;119.32;108.18;;;14.80;97.00;;;;;;4996048;28;20057;-75
2022/05/26 06:11:49;;;;;;;117.43;106.32;;;14.80;96.80;;;;;;5025035;28;20051;-76
2022/05/26 06:14:16;;;;;;;118.03;106.88;;;14.90;96.90;;;;;;4994631;28;20058;-76
2022/05/26 06:16:44;;;;;;;118.93;107.72;;;14.90;96.80;;;;;;4991227;28;20086;-75
2022/05/26 06:19:12;;;;;;;119.43;108.07;;;14.90;96.70;;;;;;5003411;28;20138;-76
2022/05/26 06:21:39;;;;;;;119.05;107.57;;;14.90;96.70;;;;;;5024704;28;20113;-77
2022/05/26 06:24:07;;;;;;;118.20;106.93;;;14.90;96.70;;;;;;5011110;28;20047;-75
2022/05/26 06:26:36;;;;;;;117.95;106.90;;;15.00;96.50;;;;;;5011332;28;20137;-76
2022/05/26 06:37:14;;;;;;;119.50;108.15;;;15.00;96.40;;;;;;5001396;28;20089;-78
2022/05/26 06:39:41;;;;;;;117.28;106.13;;;15.10;96.50;;;;;;5009735;28;20046;-77
2022/05/26 06:42:10;;;;;;;116.88;105.80;;;15.10;96.60;;;;;;5010924;28;20060;-76
2022/05/26 06:44:40;;;;;;;118.22;107.10;;;15.10;96.60;;;;;;5000923;28;20058;-76
2022/05/26 06:47:10;;;;;;;120.55;109.35;;;15.20;96.60;;;;;;5023690;28;20053;-74
2022/05/26 06:49:36;;;;;;;118.78;107.57;;;15.20;96.30;;;;;;4991088;28;20077;-75
2022/05/26 06:52:05;;;;;;;118.32;107.43;;;15.20;96.40;;;;;;5002220;28;20517;-75
2022/05/26 06:54:33;;;;;;;117.55;106.65;;;15.30;96.40;;;;;;5009809;28;20051;-81
2022/05/26 06:57:00;;;;;;;118.35;107.15;;;15.30;96.00;;;;;;5010399;28;20065;-81
2022/05/26 06:59:28;;;;;;;117.05;106.05;;;15.30;95.80;;;;;;5011166;28;20141;-78
2022/05/26 07:01:55;;;;;;;117.90;106.65;;;15.30;96.10;;;;;;5012210;28;20125;-80
2022/05/26 07:04:22;;;;;;;118.60;107.45;;;15.30;96.40;;;;;;4996528;28;20064;-80
2022/05/26 07:06:51;;;;;;;118.60;107.28;;;15.30;96.60;;;;;;5013310;28;20054;-77
2022/05/26 07:09:18;;;;;;;118.43;107.20;;;15.40;96.30;;;;;;5010628;28;20157;-80
2022/05/26 07:11:45;;;;;;;117.63;106.55;;;15.40;96.40;;;;;;5010563;28;20795;-79
2022/05/26 07:14:12;;;;;;;119.00;107.80;;;15.40;96.20;;;;;;4978491;28;20129;-78
2022/05/26 07:16:41;;;;;;;119.32;108.30;;;15.50;95.80;;;;;;5009844;28;20057;-77
2022/05/26 07:19:09;;;;;;;119.82;108.53;;;15.50;96.00;;;;;;4995380;28;20078;-78
2022/05/26 07:21:35;;;;;;;118.10;106.90;;;15.50;95.60;;;;;;5013969;28;20054;-78
2022/05/26 07:24:02;;;;;;;119.30;107.88;;;15.50;95.70;;;;;;5010723;28;20047;-75
2022/05/26 07:26:32;;;;;;;119.63;108.45;;;15.60;95.50;;;;;;5003487;28;20057;-77
2022/05/26 07:28:59;;;;;;;117.40;106.50;;;15.60;95.20;;;;;;5008614;28;20094;-79
2022/05/26 07:31:26;;;;;;;119.63;108.60;;;15.60;95.30;;;;;;5004320;28;20158;-77
2022/05/26 07:33:55;;;;;;;118.65;107.72;;;15.60;95.50;;;;;;5004202;28;20050;-78
2022/05/26 07:41:56;;;;;;;117.05;106.35;;;15.70;95.00;;;;;;5011838;28;20987;-77
2022/05/26 07:44:24;;;;;;;119.13;107.85;;;15.80;94.40;;;;;;5008942;28;20157;-82
2022/05/26 07:46:51;;;;;;;118.82;107.43;;;15.80;94.40;;;;;;5009957;28;20066;-78
2022/05/26 07:49:19;;;;;;;118.10;107.05;;;15.80;94.40;;;;;;4995758;28;20054;-77
2022/05/26 07:51:46;;;;;;;119.20;107.85;;;15.70;94.40;;;;;;4994918;28;20505;-77
2022/05/26 07:54:13;;;;;;;118.57;107.47;;;15.70;94.50;;;;;;5028806;28;20653;-76
2022/05/26 07:56:40;;;;;;;116.63;105.82;;;15.70;95.10;;;;;;5007558;28;20183;-77
2022/05/26 07:59:09;;;;;;;117.43;106.80;;;15.70;94.80;;;;;;5007692;28;20583;-77
2022/05/26 08:01:36;;;;;;;118.15;107.35;;;15.80;94.90;;;;;;4998338;28;20039;-78
2022/05/26 08:04:05;;;;;;;118.30;107.30;;;15.80;94.60;;;;;;5010535;28;20057;-78
2022/05/26 08:06:34;;;;;;;117.95;106.88;;;15.90;94.60;;;;;;5012384;28;20055;-77
2022/05/26 08:09:01;;;;;;;120.13;108.93;;;15.90;94.50;;;;;;5012697;28;20161;-78
2022/05/26 08:11:28;;;;;;;120.70;109.60;;;15.90;94.80;;;;;;5009739;28;20682;-77
2022/05/26 08:13:55;;;;;;;120.93;109.63;;;15.90;94.90;;;;;;5011793;28;20052;-77
2022/05/26 08:16:22;;;;;;;121.97;110.70;;;15.90;94.90;;;;;;5009412;28;20065;-78
2022/05/26 08:18:48;;;;;;;121.50;110.18;;;16.00;94.90;;;;;;5004106;28;20186;-77
2022/05/26 08:21:18;;;;;;;121.43;109.85;;;16.00;94.60;;;;;;5005350;28;20078;-78
2022/05/26 08:23:47;;;;;;;120.63;109.47;;;16.10;94.90;;;;;;4992970;28;20058;-78
2022/05/26 08:26:14;;;;;;;120.72;109.35;;;16.20;94.10;;;;;;5009815;28;20114;-78
2022/05/26 08:28:43;;;;;;;119.35;108.38;;;16.20;94.10;;;;;;4992760;28;20062;-78
2022/05/26 08:31:13;;;;;;;119.35;108.05;;;16.20;94.40;;;;;;5021305;28;20054;-78
2022/05/26 08:33:40;;;;;;;117.72;106.82;;;16.30;93.90;;;;;;5013410;28;20058;-77
2022/05/26 08:36:10;;;;;;;121.35;110.03;;;16.40;93.00;;;;;;5011035;28;20050;-76
2022/05/26 08:38:38;;;;;;;118.50;107.65;;;16.40;92.00;;;;;;5004237;28;20051;-76
2022/05/26 08:41:08;;;;;;;120.75;109.65;;;16.40;92.30;;;;;;5005706;28;20077;-77
2022/05/26 08:43:39;;;;;;;119.88;108.82;;;16.40;92.70;;;;;;5005847;28;20046;-78
2022/05/26 08:46:12;;;;;;;119.82;108.28;;;16.40;91.50;;;;;;5012385;28;20054;-77
2022/05/26 08:48:51;;;;;;;120.10;109.15;;;16.50;91.60;;;;;;5001269;28;20047;-78
2022/05/26 08:51:25;;;;;;;119.75;108.78;;;16.50;91.40;;;;;;5026902;28;20492;-78
2022/05/26 08:53:52;;;;;;;122.50;111.20;;;16.50;91.30;;;;;;5009844;28;20052;-75
2022/05/26 08:56:24;;;;;;;119.35;107.95;;;16.60;90.70;;;;;;4996663;28;20047;-75
2022/05/26 08:59:03;;;;;;;121.32;109.93;;;16.60;90.10;;;;;;5005328;28;20133;-77
2022/05/26 09:01:32;;;;;;;120.78;109.68;;;16.60;91.20;;;;;;4999860;28;20954;-76
2022/05/26 09:04:01;;;;;;;119.63;108.43;;;16.60;90.40;;;;;;5010830;28;20061;-76
2022/05/26 09:06:28;;;;;;;120.68;109.53;;;16.70;90.00;;;;;;5011778;28;20428;-75
2022/05/26 09:14:32;;;;;;;118.10;107.50;;;16.80;87.90;;;;;;5004848;28;20119;-76
2022/05/26 09:17:03;;;;;;;120.32;109.30;;;16.90;87.50;;;;;;5027254;28;20538;-78
2022/05/26 09:19:48;;;;;;;122.43;111.32;;;16.90;85.90;;;;;;5011909;28;20081;-78
2022/05/26 09:22:28;;;;;;;119.65;108.78;;;16.80;86.70;;;;;;5011784;28;20077;-79
2022/05/26 09:24:55;;;;;;;121.70;110.70;;;16.80;87.80;;;;;;5008860;28;20137;-79
2022/05/26 09:27:29;;;;;;;122.97;111.78;;;16.80;88.20;;;;;;4987257;28;20049;-78
2022/05/26 09:30:16;;;;;;;120.27;109.13;;;16.90;89.40;;;;;;5007529;28;20138;-79
2022/05/26 09:32:44;;;;;;;118.72;108.07;;;16.90;87.10;;;;;;5025430;28;20804;-77
2022/05/26 09:35:14;;;;;;;120.90;110.10;;;16.90;88.50;;;;;;5007651;28;20062;-77
2022/05/26 09:37:43;;;;;;;119.85;109.15;;;16.90;88.00;;;;;;5006126;28;20476;-77
2022/05/26 09:40:17;;;;;;;121.70;110.70;;;16.90;90.40;;;;;;5007390;28;20420;-76
2022/05/26 09:42:47;;;;;;;119.00;108.28;;;17.00;84.40;;;;;;5010929;28;20054;-76
2022/05/26 09:45:17;;;;;;;120.20;109.03;;;17.10;83.40;;;;;;5002698;28;20085;-75
2022/05/26 09:47:53;;;;;;;119.35;108.75;;;17.10;85.90;;;;;;4993939;28;20050;-78
2022/05/26 09:50:40;;;;;;;119.40;108.70;;;17.20;86.70;;;;;;5003976;28;20101;-79
2022/05/26 09:53:16;;;;;;;118.80;108.28;;;17.30;85.60;;;;;;5009703;28;20113;-80
2022/05/26 09:55:48;;;;;;;120.85;109.95;;;17.40;83.70;;;;;;5011934;28;20057;-77
2022/05/26 09:58:28;;;;;;;121.35;110.45;;;17.40;80.90;;;;;;5004640;28;20054;-79
2022/05/26 10:00:58;;;;;;;120.93;110.10;;;17.50;80.10;;;;;;5005273;28;20054;-77
2022/05/26 10:03:34;;;;;;;121.05;110.15;;;17.50;80.30;;;;;;4993283;28;20046;-76
2022/05/26 10:06:15;;;;;;;121.65;110.57;;;17.60;81.20;;;;;;5001646;28;21554;-76
2022/05/26 10:08:54;;;;;;;120.80;110.10;;;17.60;82.40;;;;;;4996127;28;20107;-77
2022/05/26 10:11:34;;;;;;;121.30;110.40;;;17.60;80.30;;;;;;5007757;28;20056;-76
2022/05/26 10:14:13;;;;;;;120.93;109.95;;;17.60;80.30;;;;;;5004500;28;20061;-76
2022/05/26 10:16:47;;;;;;;120.80;110.10;;;17.60;81.00;;;;;;5024672;28;20046;-75
2022/05/26 10:19:30;;;;;;;118.60;108.05;;;17.50;82.90;;;;;;5009892;28;20057;-75
2022/05/26 10:22:08;;;;;;;121.70;110.72;;;17.50;82.10;;;;;;5002018;28;20084;-76
2022/05/26 10:25:00;;;;;;;120.22;109.40;;;17.50;82.10;;;;;;4997095;28;20125;-77
2022/05/26 10:27:41;;;;;;;124.38;112.97;;;17.50;82.70;;;;;;5009163;28;20054;-78
2022/05/26 10:30:22;;;;;;;121.80;110.70;;;17.50;83.70;;;;;;5009783;28;20065;-81
2022/05/26 10:33:08;;;;;;;120.25;109.35;;;17.50;86.40;;;;;;4990916;28;20089;-79
2022/05/26 10:35:42;;;;;;;120.32;109.47;;;17.50;86.20;;;;;;4985444;28;20050;-84
2022/05/26 10:38:23;;;;;;;122.05;110.60;;;17.60;85.30;;;;;;5010511;28;20082;-83
2022/05/26 10:40:55;;;;;;;120.28;109.45;;;17.60;84.60;;;;;;5014829;28;20177;-85
2022/05/26 10:43:26;;;;;;;118.93;108.22;;;17.60;85.10;;;;;;4998348;28;20046;-84
2022/05/26 10:45:56;;;;;;;120.63;109.63;;;17.60;85.80;;;;;;5013546;28;20098;-88
2022/05/26 10:48:30;;;;;;;120.60;109.88;;;17.60;85.00;;;;;;4998411;28;20496;-85
2022/05/26 10:51:00;;;;;;;;;;;17.60;85.20;;;;;;4994878;28;20050;-83
2022/05/26 10:53:33;;;;;;;117.45;106.93;;;17.50;85.40;;;;;;4978325;28;19977;-83
2022/05/26 10:56:07;;;;;;;121.20;110.45;;;17.40;86.20;;;;;;4992673;28;20054;-81
2022/05/26 10:58:39;;;;;;;119.35;108.68;;;17.30;87.40;;;;;;4981282;28;20058;-89
2022/05/26 11:01:17;;;;;;;118.43;107.82;;;17.30;88.40;;;;;;4997075;28;20082;-89
2022/05/26 11:03:47;;;;;;;120.05;109.05;;;17.20;90.00;;;;;;4999101;28;20509;-89
2022/05/26 11:06:25;;;;;;;119.25;108.63;;;17.30;90.50;;;;;;5014787;28;20074;-84
2022/05/26 11:08:55;;;;;;;120.65;109.82;;;17.30;90.80;;;;;;4997799;28;20157;-84
2022/05/26 11:11:28;;;;;;;121.88;110.93;;;17.30;90.90;;;;;;5014499;28;20058;-81
2022/05/26 11:14:02;;;;;;;123.40;112.25;;;17.30;91.20;;;;;;4980501;28;21686;-81
2022/05/26 11:19:34;;;;;;;121.85;111.18;;;17.40;90.40;;;;;;5006117;28;20042;-85
2022/05/26 11:22:03;;;;;;;123.72;112.50;;;17.60;87.70;;;;;;5015034;28;20054;-79
2022/05/26 11:24:30;;;;;;;119.85;109.28;;;17.70;84.80;;;;;;4992556;28;20057;-78
2022/05/26 11:27:05;;;;;;;121.57;110.78;;;17.70;83.40;;;;;;5026704;28;20050;-79
2022/05/26 11:29:35;;;;;;;;;;;17.80;85.30;;;;;;5012906;28;20064;-80
2022/05/26 11:38:00;;;;;;;119.85;109.05;;;17.80;84.60;;;;;;4973696;28;20051;-79
2022/05/26 11:40:35;;;;;;;121.35;110.38;;;17.90;83.90;;;;;;5009403;28;20113;-79
2022/05/26 11:43:07;;;;;;;123.60;112.30;;;17.80;84.80;;;;;;4995701;28;20134;-79
2022/05/26 11:45:47;;;;;;;122.75;111.82;;;17.90;84.90;;;;;;5000755;28;20120;-79
2022/05/26 11:48:41;;;;;;;122.47;111.10;;;17.90;86.00;;;;;;5009361;28;20046;-78
2022/05/26 11:51:29;;;;;;;121.03;110.15;;;17.90;84.30;;;;;;5010322;28;20047;-80
2022/05/26 11:53:56;;;;;;;121.15;110.15;;;17.90;83.10;;;;;;5015885;28;20061;-78
2022/05/26 11:56:45;;;;;;;122.85;111.82;;;17.90;78.30;;;;;;4999135;28;20055;-78
2022/05/26 11:59:47;;;;;;;121.95;111.00;;;18.00;79.90;;;;;;5003868;28;20055;-81
2022/05/26 12:02:32;;;;;;;120.97;110.28;;;18.00;78.60;;;;;;5005360;28;20137;-81
2022/05/26 12:05:33;;;;;;;123.53;112.47;;;18.10;81.00;;;;;;4995296;28;20120;-78
2022/05/26 12:08:05;;;;;;;121.80;110.88;;;18.10;83.50;;;;;;5002042;28;20554;-77
2022/05/26 12:10:40;;;;;;;123.20;112.00;;;18.20;84.30;;;;;;4992805;28;20420;-79
2022/05/26 12:13:33;;;;;;;121.47;110.65;;;18.20;83.60;;;;;;5012588;28;20072;-79
2022/05/26 12:16:24;;;;;;;121.28;110.50;;;18.30;82.70;;;;;;5012063;28;20054;-79
2022/05/26 12:18:53;;;;;;;121.72;110.78;;;18.30;84.90;;;;;;5009366;28;20141;-77
2022/05/26 12:21:38;;;;;;;122.57;111.53;;;18.40;83.90;;;;;;5011693;28;20046;-80
2022/05/26 12:24:44;;;;;;;121.63;110.72;;;18.50;83.20;;;;;;5029477;28;20058;-80
2022/05/26 12:27:12;;;;;;;122.50;111.50;;;18.50;80.30;;;;;;4972353;28;20046;-78
2022/05/26 12:29:44;;;;;;;121.75;111.03;;;18.50;79.40;;;;;;5010811;28;20054;-80
2022/05/26 12:32:15;;;;;;;122.22;111.10;;;18.50;81.50;;;;;;5013130;28;20057;-80
2022/05/26 12:34:52;;;;;;;124.22;113.13;;;18.60;78.90;;;;;;5021699;28;20059;-81
2022/05/26 12:37:43;;;;;;;122.47;111.20;;;18.60;81.40;;;;;;5027758;28;20145;-81
2022/05/26 12:40:52;;;;;;;121.53;110.65;;;18.60;80.40;;;;;;5012822;28;20060;-81
2022/05/26 12:44:03;;;;;;;122.43;111.13;;;18.60;80.60;;;;;;5007045;28;20077;-82
2022/05/26 12:46:50;;;;;;;122.20;110.85;;;18.60;79.90;;;;;;5003093;28;20042;-81
2022/05/26 12:49:48;;;;;;;120.97;110.07;;;18.50;79.00;;;;;;5013015;28;20050;-81
2022/05/26 12:52:19;;;;;;;120.25;109.35;;;18.50;79.00;;;;;;5014647;28;20497;-80
2022/05/26 12:54:52;;;;;;;122.03;110.88;;;18.40;79.60;;;;;;5012610;28;20105;-80
2022/05/26 12:57:23;;;;;;;123.88;112.68;;;18.40;81.70;;;;;;5012113;28;20753;-80
2022/05/26 12:59:52;;;;;;;120.95;109.85;;;18.40;82.80;;;;;;4996579;28;20058;-80
2022/05/26 13:02:30;;;;;;;120.40;109.57;;;18.40;82.00;;;;;;4996286;28;20130;-80
2022/05/26 13:04:57;;;;;;;121.68;110.47;;;18.50;79.20;;;;;;5012718;28;20214;-80
2022/05/26 13:07:24;;;;;;;121.85;110.75;;;18.40;80.90;;;;;;4995838;28;20077;-80